Time;durP1;ratioP1;P1;durP2;ratioP2;P2;SDS_P1;SDS_P2;PMS_P1;PMS_P2;Temp;Humidity;BMP_temperature;BMP_pressure;BME280_temperature;BME280_humidity;BME280_pressure;Samples;Min_cycle;Max_cycle;Signal;HPM_P1;HPM_P2
2022/03/25 00:02:19;;;;;;;138.13;71.20;;;3.90;99.90;;;;;;4995969;28;20121;-73
2022/03/25 00:04:44;;;;;;;150.07;74.30;;;3.90;99.90;;;;;;4995571;28;20121;-76
2022/03/25 00:07:10;;;;;;;141.02;73.05;;;3.80;99.90;;;;;;4996252;28;20038;-74
2022/03/25 00:09:36;;;;;;;152.55;76.15;;;3.80;99.90;;;;;;4996208;28;20053;-75
2022/03/25 00:12:04;;;;;;;142.80;72.35;;;3.80;99.90;;;;;;4995601;28;20038;-73
2022/03/25 00:14:29;;;;;;;134.98;69.05;;;3.70;99.90;;;;;;4995742;28;20047;-74
2022/03/25 00:16:55;;;;;;;124.57;67.07;;;3.70;99.90;;;;;;4995663;28;20061;-75
2022/03/25 00:19:20;;;;;;;121.63;64.05;;;3.70;99.90;;;;;;4994741;28;20038;-75
2022/03/25 00:21:46;;;;;;;129.07;66.25;;;3.60;99.90;;;;;;4993695;28;20121;-74
2022/03/25 00:24:12;;;;;;;125.10;68.00;;;3.60;99.90;;;;;;4978361;28;20034;-73
2022/03/25 00:26:37;;;;;;;128.63;67.90;;;3.60;99.90;;;;;;4992428;28;20108;-73
2022/03/25 00:29:03;;;;;;;118.47;63.38;;;3.50;99.90;;;;;;4990860;28;20034;-74
2022/03/25 00:31:28;;;;;;;127.65;66.45;;;3.50;99.90;;;;;;4995631;28;20035;-76
2022/03/25 00:33:54;;;;;;;128.35;66.55;;;3.40;99.90;;;;;;4995550;28;20082;-73
2022/03/25 00:36:23;;;;;;;119.38;66.35;;;3.40;99.90;;;;;;4978223;28;20124;-76
2022/03/25 00:38:49;;;;;;;128.95;66.75;;;3.30;99.90;;;;;;4978381;28;20049;-75
2022/03/25 00:41:16;;;;;;;116.18;62.38;;;3.30;99.90;;;;;;4994523;28;20046;-73
2022/03/25 00:43:42;;;;;;;128.32;66.60;;;3.30;99.90;;;;;;4995384;28;20041;-74
2022/03/25 00:46:10;;;;;;;127.88;66.50;;;3.80;99.90;;;;;;4995468;28;20414;-74
2022/03/25 00:48:36;;;;;;;123.30;64.45;;;3.30;99.90;;;;;;4978181;28;20050;-74
2022/03/25 00:51:03;;;;;;;134.40;69.15;;;3.20;99.90;;;;;;4980597;28;20058;-73
2022/03/25 00:53:28;;;;;;;142.00;73.07;;;3.20;99.90;;;;;;4993768;28;20046;-74
2022/03/25 00:55:54;;;;;;;148.57;71.95;;;3.20;99.90;;;;;;4992109;28;20053;-75
2022/03/25 00:58:21;;;;;;;143.38;72.60;;;3.20;99.90;;;;;;4978175;28;20118;-75
2022/03/25 01:00:47;;;;;;;132.82;68.10;;;3.70;99.90;;;;;;4977980;28;20109;-74
2022/03/25 01:03:12;;;;;;;133.00;67.70;;;3.10;99.90;;;;;;4995482;28;20042;-77
2022/03/25 01:05:38;;;;;;;149.23;73.05;;;3.10;99.90;;;;;;4995179;28;20043;-73
2022/03/25 01:08:06;;;;;;;143.73;71.55;;;3.90;99.90;;;;;;4995324;28;20070;-73
2022/03/25 01:10:31;;;;;;;153.38;73.80;;;3.10;99.90;;;;;;4976070;28;20436;-75
2022/03/25 01:12:58;;;;;;;140.52;70.75;;;3.10;99.90;;;;;;4978191;28;20092;-73
2022/03/25 01:15:24;;;;;;;139.05;71.45;;;3.00;99.90;;;;;;4995204;28;20050;-74
2022/03/25 01:17:49;;;;;;;136.65;70.47;;;3.00;99.90;;;;;;4995417;28;20067;-73
2022/03/25 01:20:17;;;;;;;127.65;66.78;;;3.00;99.90;;;;;;4983738;28;20050;-74
2022/03/25 01:22:44;;;;;;;155.40;71.30;;;2.90;99.90;;;;;;4975363;28;20043;-74
2022/03/25 01:25:10;;;;;;;136.13;67.70;;;3.00;99.90;;;;;;4975786;28;20134;-73
2022/03/25 01:27:35;;;;;;;143.25;69.65;;;2.90;99.90;;;;;;4958379;28;20094;-73
2022/03/25 01:30:01;;;;;;;149.07;71.45;;;2.90;99.90;;;;;;4975676;28;20039;-75
2022/03/25 01:32:27;;;;;;;134.70;68.85;;;2.90;99.90;;;;;;4975738;28;20106;-74
2022/03/25 01:34:53;;;;;;;146.90;70.68;;;2.90;99.90;;;;;;4975543;28;20358;-75
2022/03/25 01:37:19;;;;;;;168.30;74.50;;;2.90;99.90;;;;;;4959390;28;20051;-74
2022/03/25 01:39:45;;;;;;;133.23;68.28;;;3.00;99.90;;;;;;4975399;28;20043;-73
2022/03/25 01:42:11;;;;;;;128.50;68.18;;;2.80;99.90;;;;;;4958299;28;20371;-73
2022/03/25 01:44:36;;;;;;;136.32;68.28;;;2.80;99.90;;;;;;4975582;28;20053;-74
2022/03/25 01:47:07;;;;;;;132.63;64.53;;;2.70;99.90;;;;;;4975273;28;20038;-74
2022/03/25 01:49:34;;;;;;;123.10;62.85;;;2.70;99.90;;;;;;4961769;28;20077;-73
2022/03/25 01:52:01;;;;;;;122.40;62.05;;;2.70;99.90;;;;;;4986852;28;20034;-75
2022/03/25 01:54:31;;;;;;;125.47;63.80;;;2.70;99.90;;;;;;4945701;28;20082;-74
2022/03/25 01:57:05;;;;;;;134.38;65.50;;;2.70;99.90;;;;;;4961790;28;20460;-73
2022/03/25 01:59:31;;;;;;;119.97;62.47;;;2.60;99.90;;;;;;4978766;28;20055;-74
2022/03/25 02:01:58;;;;;;;114.55;59.05;;;2.60;99.90;;;;;;4977749;28;20039;-72
2022/03/25 02:04:25;;;;;;;118.32;61.17;;;2.60;99.90;;;;;;4978355;28;20050;-73
2022/03/25 02:06:52;;;;;;;110.00;59.03;;;2.60;99.90;;;;;;4978785;28;20400;-73
2022/03/25 02:09:18;;;;;;;119.90;61.47;;;2.50;99.90;;;;;;4961725;28;20126;-71
2022/03/25 02:11:44;;;;;;;125.60;62.03;;;2.50;99.90;;;;;;4961258;28;20093;-74
2022/03/25 02:14:11;;;;;;;111.80;60.20;;;2.50;99.90;;;;;;4961566;28;20047;-73
2022/03/25 02:16:44;;;;;;;105.05;57.20;;;2.60;99.90;;;;;;4961193;28;20090;-74
2022/03/25 02:19:18;;;;;;;113.15;58.15;;;2.40;99.90;;;;;;4981748;28;20094;-74
2022/03/25 02:21:45;;;;;;;110.60;57.08;;;2.40;99.90;;;;;;4997803;28;20146;-75
2022/03/25 02:24:12;;;;;;;109.03;59.22;;;2.30;99.90;;;;;;4980708;28;20042;-73
2022/03/25 02:26:38;;;;;;;112.53;58.72;;;2.30;99.90;;;;;;4989332;28;20046;-74
2022/03/25 02:29:05;;;;;;;108.63;57.75;;;2.30;99.90;;;;;;4961160;28;20129;-72
2022/03/25 02:31:31;;;;;;;116.78;57.83;;;2.20;99.90;;;;;;4961872;28;20368;-75
2022/03/25 02:34:03;;;;;;;101.47;54.78;;;2.20;99.90;;;;;;4960963;28;20047;-73
2022/03/25 02:36:29;;;;;;;106.30;57.90;;;2.10;99.90;;;;;;4960951;28;20058;-73
2022/03/25 02:38:55;;;;;;;96.25;52.28;;;2.10;99.90;;;;;;4978359;28;20356;-74
2022/03/25 02:41:21;;;;;;;106.70;55.95;;;2.10;99.90;;;;;;4978101;28;20050;-72
2022/03/25 02:43:46;;;;;;;100.07;53.78;;;2.80;99.90;;;;;;4977913;28;20160;-75
2022/03/25 02:46:12;;;;;;;101.32;53.55;;;2.00;99.90;;;;;;4960737;28;20053;-74
2022/03/25 02:48:38;;;;;;;99.60;53.70;;;2.00;99.90;;;;;;4961067;28;20367;-73
2022/03/25 02:51:04;;;;;;;99.60;52.50;;;2.00;99.90;;;;;;4977752;28;20042;-74
2022/03/25 02:53:31;;;;;;;92.72;52.08;;;1.90;99.90;;;;;;4976641;28;20068;-73
2022/03/25 02:55:56;;;;;;;91.00;52.40;;;1.90;99.90;;;;;;4960877;28;20042;-75
2022/03/25 02:58:22;;;;;;;88.80;49.58;;;1.90;99.90;;;;;;4977766;28;20049;-72
2022/03/25 03:00:48;;;;;;;85.90;46.47;;;1.80;99.90;;;;;;4977351;28;20058;-74
2022/03/25 03:03:14;;;;;;;86.13;49.65;;;1.80;99.90;;;;;;4960149;28;20051;-72
2022/03/25 03:05:40;;;;;;;85.60;47.40;;;1.70;99.90;;;;;;4976911;28;20064;-74
2022/03/25 03:08:06;;;;;;;78.20;46.22;;;1.70;99.90;;;;;;4960952;28;20129;-74
2022/03/25 03:10:32;;;;;;;82.50;47.83;;;1.70;99.90;;;;;;4977779;28;20134;-74
2022/03/25 03:13:02;;;;;;;76.97;46.47;;;1.60;99.90;;;;;;4976220;28;20074;-74
2022/03/25 03:15:27;;;;;;;81.13;46.88;;;1.60;99.90;;;;;;4960159;28;20109;-71
2022/03/25 03:17:53;;;;;;;81.85;44.60;;;1.50;99.90;;;;;;4976357;28;20038;-73
2022/03/25 03:20:20;;;;;;;83.75;47.50;;;1.60;99.90;;;;;;4979651;28;20038;-74
2022/03/25 03:22:48;;;;;;;87.40;48.38;;;1.50;99.90;;;;;;4960648;28;20484;-76
2022/03/25 03:25:14;;;;;;;74.18;45.03;;;1.40;99.90;;;;;;4960251;28;20138;-73
2022/03/25 03:27:40;;;;;;;78.18;43.90;;;1.40;99.90;;;;;;4977200;28;20051;-72
2022/03/25 03:30:08;;;;;;;82.00;45.50;;;1.30;99.90;;;;;;4977103;28;20351;-73
2022/03/25 03:32:35;;;;;;;80.20;46.83;;;1.30;99.90;;;;;;4977088;28;20074;-73
2022/03/25 03:35:01;;;;;;;86.28;47.83;;;1.40;99.90;;;;;;4977212;28;20047;-73
2022/03/25 03:37:27;;;;;;;82.65;46.17;;;1.40;99.90;;;;;;4960040;28;20452;-73
2022/03/25 03:39:53;;;;;;;88.32;45.35;;;1.30;99.90;;;;;;4959927;28;20047;-74
2022/03/25 03:42:19;;;;;;;83.82;46.25;;;1.30;99.90;;;;;;4976948;28;20121;-72
2022/03/25 03:44:45;;;;;;;82.85;45.63;;;1.20;99.90;;;;;;4995159;28;20078;-74
2022/03/25 03:47:11;;;;;;;85.63;46.50;;;1.20;99.90;;;;;;4996058;28;20049;-73
2022/03/25 03:49:38;;;;;;;80.75;43.55;;;1.10;99.90;;;;;;4996228;28;20069;-72
2022/03/25 03:52:04;;;;;;;72.55;42.10;;;1.10;99.90;;;;;;4996045;28;20046;-73
2022/03/25 03:54:32;;;;;;;82.05;46.35;;;1.00;99.90;;;;;;4978812;28;20038;-74
2022/03/25 03:56:58;;;;;;;78.97;44.25;;;1.00;99.90;;;;;;4978873;28;20116;-73
2022/03/25 03:59:24;;;;;;;78.18;44.30;;;1.00;99.90;;;;;;4978628;28;20058;-73
2022/03/25 04:01:49;;;;;;;76.43;44.90;;;0.90;99.90;;;;;;4996079;28;20045;-74
2022/03/25 04:04:15;;;;;;;75.18;42.05;;;0.90;99.90;;;;;;4995989;28;20042;-73
2022/03/25 04:06:40;;;;;;;74.63;39.63;;;0.90;99.90;;;;;;4996083;28;20046;-75
2022/03/25 04:09:06;;;;;;;67.57;40.40;;;0.90;99.90;;;;;;4958248;28;20050;-75
2022/03/25 04:11:32;;;;;;;68.20;41.45;;;0.90;99.90;;;;;;4995317;28;20157;-74
2022/03/25 04:13:57;;;;;;;62.42;38.90;;;0.80;99.90;;;;;;4967319;28;20047;-74
2022/03/25 04:16:23;;;;;;;64.05;38.08;;;0.80;99.90;;;;;;4958029;28;20042;-75
2022/03/25 04:18:48;;;;;;;59.15;37.50;;;0.80;99.90;;;;;;4978608;28;20370;-74
2022/03/25 04:21:14;;;;;;;60.22;37.63;;;0.80;99.90;;;;;;4978492;28;20060;-74
2022/03/25 04:23:40;;;;;;;60.38;37.17;;;0.70;99.90;;;;;;4995705;28;20366;-73
2022/03/25 04:26:06;;;;;;;57.67;36.10;;;0.70;99.90;;;;;;4978664;28;20042;-73
2022/03/25 04:28:32;;;;;;;54.78;34.25;;;0.70;99.90;;;;;;4978256;28;20034;-74
2022/03/25 04:30:58;;;;;;;55.22;35.92;;;0.60;99.90;;;;;;4978504;28;20049;-73
2022/03/25 04:33:23;;;;;;;58.08;35.88;;;0.60;99.90;;;;;;4962362;28;20382;-73
2022/03/25 04:35:49;;;;;;;52.25;34.33;;;0.60;99.90;;;;;;4962203;28;20050;-74
2022/03/25 04:38:15;;;;;;;54.10;35.53;;;0.60;99.90;;;;;;4978483;28;20042;-74
2022/03/25 04:40:41;;;;;;;53.25;34.05;;;0.50;99.90;;;;;;4978438;28;20058;-73
2022/03/25 04:43:07;;;;;;;59.40;35.72;;;0.50;99.90;;;;;;4973040;28;20061;-74
2022/03/25 04:45:34;;;;;;;54.67;35.35;;;0.50;99.90;;;;;;4964165;28;20038;-74
2022/03/25 04:48:01;;;;;;;55.53;34.67;;;0.40;99.90;;;;;;4994635;28;20345;-74
2022/03/25 04:50:27;;;;;;;60.47;36.72;;;0.40;99.90;;;;;;4977896;28;20090;-75
2022/03/25 04:52:54;;;;;;;56.33;35.40;;;0.40;99.90;;;;;;4978147;28;20050;-73
2022/03/25 04:55:20;;;;;;;60.83;38.33;;;0.40;99.90;;;;;;4995350;28;20061;-74
2022/03/25 04:57:46;;;;;;;63.45;38.60;;;0.40;99.90;;;;;;4978268;28;20082;-75
2022/03/25 05:00:13;;;;;;;60.22;38.50;;;0.40;99.90;;;;;;4978240;28;20369;-73
2022/03/25 05:02:39;;;;;;;55.60;36.20;;;0.40;99.90;;;;;;4978297;28;20125;-75
2022/03/25 05:05:06;;;;;;;63.55;38.72;;;0.40;99.90;;;;;;4961916;28;20535;-73
2022/03/25 05:07:32;;;;;;;67.65;40.47;;;0.40;99.90;;;;;;4995393;28;20119;-73
2022/03/25 05:10:01;;;;;;;65.40;40.03;;;0.40;99.90;;;;;;4962132;28;20130;-72
2022/03/25 05:12:27;;;;;;;71.88;41.47;;;0.40;99.90;;;;;;4977759;28;20375;-73
2022/03/25 05:14:53;;;;;;;75.57;43.20;;;0.40;99.90;;;;;;4974446;28;20047;-73
2022/03/25 05:17:19;;;;;;;65.63;41.08;;;0.40;99.90;;;;;;4958732;28;20043;-73
2022/03/25 05:19:45;;;;;;;71.25;41.83;;;0.40;99.90;;;;;;4959104;28;20501;-76
2022/03/25 05:22:10;;;;;;;78.85;43.13;;;0.40;99.90;;;;;;4958686;28;20090;-75
2022/03/25 05:24:36;;;;;;;69.82;40.72;;;0.40;99.90;;;;;;4975753;28;20133;-74
2022/03/25 05:27:05;;;;;;;69.18;40.92;;;0.40;99.90;;;;;;4967922;28;20133;-72
2022/03/25 05:29:30;;;;;;;68.03;40.05;;;0.40;99.90;;;;;;5006390;28;20355;-76
2022/03/25 05:31:57;;;;;;;57.78;38.58;;;0.50;99.90;;;;;;4998689;28;20046;-73
2022/03/25 05:34:23;;;;;;;63.47;39.85;;;0.40;99.90;;;;;;4981401;28;20031;-74
2022/03/25 05:36:48;;;;;;;61.05;37.83;;;0.50;99.90;;;;;;4998394;28;20097;-74
2022/03/25 05:39:20;;;;;;;60.40;37.45;;;1.60;99.90;;;;;;4981439;28;20562;-73
2022/03/25 05:41:46;;;;;;;58.78;36.42;;;0.80;99.90;;;;;;4998623;28;20057;-73
2022/03/25 05:44:11;;;;;;;63.95;40.08;;;0.50;99.90;;;;;;4998859;28;20133;-73
2022/03/25 05:46:38;;;;;;;59.55;38.00;;;0.50;99.90;;;;;;4965636;28;20054;-73
2022/03/25 05:49:04;;;;;;;63.10;37.50;;;0.50;99.90;;;;;;4981292;28;20054;-75
2022/03/25 05:51:31;;;;;;;66.25;39.08;;;0.60;99.90;;;;;;4981070;28;20073;-73
2022/03/25 05:53:56;;;;;;;65.10;38.85;;;0.60;99.90;;;;;;4998369;28;20050;-76
2022/03/25 05:56:22;;;;;;;62.50;38.80;;;0.70;99.90;;;;;;4998219;28;20521;-73
2022/03/25 05:58:48;;;;;;;63.20;39.92;;;0.70;99.90;;;;;;4980926;28;20054;-73
2022/03/25 06:01:19;;;;;;;60.85;37.83;;;0.80;99.90;;;;;;4999130;28;20047;-71
2022/03/25 06:03:45;;;;;;;65.68;40.00;;;0.90;99.90;;;;;;4998701;28;20463;-72
2022/03/25 06:06:10;;;;;;;63.22;39.58;;;0.90;99.90;;;;;;4998182;28;20050;-74
2022/03/25 06:08:36;;;;;;;71.72;41.05;;;1.10;99.90;;;;;;4997196;28;20046;-72
2022/03/25 06:11:02;;;;;;;65.57;38.78;;;1.10;99.90;;;;;;4980852;28;20046;-72
2022/03/25 06:13:28;;;;;;;69.55;40.83;;;1.30;99.90;;;;;;4964767;28;20042;-72
2022/03/25 06:15:55;;;;;;;72.78;40.92;;;1.30;99.90;;;;;;4998003;28;20038;-73
2022/03/25 06:18:21;;;;;;;72.18;40.03;;;1.40;99.90;;;;;;5000042;28;20105;-75
2022/03/25 06:20:47;;;;;;;64.57;38.85;;;1.50;99.90;;;;;;4983667;28;20034;-73
2022/03/25 06:23:13;;;;;;;74.63;41.72;;;1.60;99.90;;;;;;4996338;28;20046;-78
2022/03/25 06:25:39;;;;;;;69.05;41.33;;;1.70;99.90;;;;;;4960318;28;20125;-71
2022/03/25 06:28:06;;;;;;;87.57;45.90;;;1.90;99.90;;;;;;4979595;28;20120;-68
2022/03/25 06:30:34;;;;;;;83.47;44.58;;;2.10;99.90;;;;;;4993487;28;20053;-73
2022/03/25 06:33:02;;;;;;;81.45;45.05;;;2.20;99.90;;;;;;4979407;28;20050;-72
2022/03/25 06:35:27;;;;;;;87.63;49.25;;;2.30;99.90;;;;;;4996889;28;20043;-72
2022/03/25 06:37:55;;;;;;;80.60;45.28;;;2.40;99.90;;;;;;4979557;28;20061;-70
2022/03/25 06:40:21;;;;;;;82.75;46.60;;;2.90;99.90;;;;;;4979844;28;20485;-71
2022/03/25 06:42:47;;;;;;;81.22;44.80;;;2.60;99.90;;;;;;4996846;28;20101;-72
2022/03/25 06:45:17;;;;;;;78.63;44.33;;;2.70;99.90;;;;;;4979341;28;20459;-70
2022/03/25 06:47:43;;;;;;;86.35;47.97;;;2.90;99.90;;;;;;4976156;28;20049;-71
2022/03/25 06:50:13;;;;;;;71.38;42.28;;;3.00;99.90;;;;;;4993803;28;20042;-69
2022/03/25 06:52:39;;;;;;;83.55;46.08;;;3.10;99.90;;;;;;4979556;28;20132;-70
2022/03/25 06:55:05;;;;;;;81.68;44.70;;;3.30;99.90;;;;;;4978438;28;20205;-70
2022/03/25 06:57:31;;;;;;;95.70;51.60;;;3.50;99.90;;;;;;4996075;28;20480;-70
2022/03/25 06:59:57;;;;;;;92.90;50.97;;;3.60;99.90;;;;;;4996188;28;20098;-72
2022/03/25 07:02:23;;;;;;;91.35;49.58;;;3.80;99.90;;;;;;4979170;28;20034;-72
2022/03/25 07:04:48;;;;;;;89.68;50.00;;;3.90;99.90;;;;;;4995873;28;20474;-72
2022/03/25 07:07:18;;;;;;;100.25;53.17;;;4.10;99.90;;;;;;4996083;28;20387;-72
2022/03/25 07:09:44;;;;;;;81.90;46.05;;;4.20;99.90;;;;;;4993704;28;20081;-73
2022/03/25 07:12:12;;;;;;;98.28;53.03;;;4.40;99.90;;;;;;4978615;28;20381;-72
2022/03/25 07:14:38;;;;;;;107.72;52.72;;;4.60;99.90;;;;;;4992722;28;20094;-70
2022/03/25 07:17:06;;;;;;;105.43;52.22;;;4.80;99.90;;;;;;4995202;28;20085;-72
2022/03/25 07:19:32;;;;;;;96.75;53.00;;;4.90;99.90;;;;;;4977617;28;20476;-73
2022/03/25 07:21:58;;;;;;;83.63;47.80;;;5.10;99.90;;;;;;4989447;28;20046;-74
2022/03/25 07:24:29;;;;;;;98.38;50.65;;;5.20;99.90;;;;;;4977651;28;20049;-73
2022/03/25 07:26:56;;;;;;;92.65;51.33;;;5.40;99.90;;;;;;4995303;28;20101;-69
2022/03/25 07:29:21;;;;;;;93.07;51.72;;;5.50;99.90;;;;;;4977363;28;20112;-70
2022/03/25 07:31:47;;;;;;;89.35;49.67;;;5.70;99.90;;;;;;4990288;28;20419;-71
2022/03/25 07:34:13;;;;;;;91.30;50.80;;;5.80;99.90;;;;;;5009025;23;20058;-71
2022/03/25 07:36:38;;;;;;;89.20;49.10;;;6.00;99.90;;;;;;4975669;28;20070;-69
2022/03/25 07:39:05;;;;;;;100.78;49.80;;;6.10;99.90;;;;;;4976233;28;20070;-69
2022/03/25 07:41:30;;;;;;;81.45;47.25;;;6.20;99.90;;;;;;4959412;28;20047;-71
2022/03/25 07:43:56;;;;;;;81.97;46.30;;;6.40;99.90;;;;;;4975904;28;20133;-70
2022/03/25 07:46:23;;;;;;;70.05;43.08;;;6.50;99.90;;;;;;4975877;28;20050;-73
2022/03/25 07:48:49;;;;;;;77.03;43.90;;;6.60;99.90;;;;;;4975230;28;20086;-71
2022/03/25 07:51:15;;;;;;;73.90;43.38;;;6.80;99.90;;;;;;4923969;28;20090;-70
2022/03/25 07:53:40;;;;;;;72.68;42.45;;;6.90;99.90;;;;;;4974944;28;20086;-71
2022/03/25 07:56:06;;;;;;;64.60;40.53;;;7.20;99.90;;;;;;4958329;28;20054;-73
2022/03/25 07:58:32;;;;;;;64.68;38.28;;;7.20;99.90;;;;;;4974578;28;20042;-72
2022/03/25 08:00:57;;;;;;;66.00;40.58;;;7.30;99.90;;;;;;4973803;28;20163;-74
2022/03/25 08:03:23;;;;;;;62.72;37.80;;;7.40;99.90;;;;;;4974494;28;20110;-73
2022/03/25 08:05:50;;;;;;;56.42;34.67;;;7.50;99.90;;;;;;4975621;28;20038;-74
2022/03/25 08:08:18;;;;;;;55.25;34.28;;;7.60;99.90;;;;;;4975204;28;20477;-72
2022/03/25 08:10:45;;;;;;;50.75;33.28;;;7.70;99.90;;;;;;4958339;28;20043;-74
2022/03/25 08:13:11;;;;;;;49.00;32.72;;;7.80;99.90;;;;;;4975544;28;20093;-73
2022/03/25 08:15:38;;;;;;;52.00;33.50;;;8.00;99.90;;;;;;4975569;28;20150;-73
2022/03/25 08:18:08;;;;;;;48.38;30.58;;;8.10;99.90;;;;;;4975659;28;20415;-72
2022/03/25 08:20:37;;;;;;;50.05;29.20;;;8.20;99.90;;;;;;4975128;28;20121;-72
2022/03/25 08:23:04;;;;;;;47.53;27.70;;;8.40;99.90;;;;;;4958594;28;20065;-71
2022/03/25 08:28:18;;;;;;;44.75;28.15;;;8.60;99.90;;;;;;4975135;28;20046;-72
2022/03/25 08:30:45;;;;;;;43.83;27.73;;;8.70;99.90;;;;;;4958769;28;20411;-72
2022/03/25 08:33:11;;;;;;;48.05;28.42;;;8.80;99.90;;;;;;4926205;28;1022602;-72
2022/03/25 08:35:38;;;;;;;42.80;28.02;;;8.90;99.90;;;;;;4997355;28;20113;-72
2022/03/25 08:38:05;;;;;;;48.13;27.65;;;9.00;99.90;;;;;;4971928;28;20058;-75
2022/03/25 08:40:34;;;;;;;43.58;27.52;;;9.10;99.90;;;;;;4946536;28;20422;-72
2022/03/25 08:43:04;;;;;;;42.78;27.10;;;9.20;99.90;;;;;;4995953;28;20038;-73
2022/03/25 08:45:30;;;;;;;44.90;26.38;;;9.30;99.90;;;;;;5015063;28;20153;-71
2022/03/25 08:47:59;;;;;;;40.03;25.10;;;9.40;99.90;;;;;;5011655;28;20038;-74
2022/03/25 08:50:26;;;;;;;50.10;25.33;;;9.50;99.90;;;;;;4996574;28;20124;-73
2022/03/25 08:52:53;;;;;;;42.78;25.50;;;9.60;99.90;;;;;;4997696;28;20099;-73
2022/03/25 08:55:20;;;;;;;40.83;24.40;;;9.70;99.90;;;;;;4997501;28;20081;-70
2022/03/25 08:57:47;;;;;;;44.35;25.83;;;9.80;99.90;;;;;;4981311;28;20050;-70
2022/03/25 09:00:15;;;;;;;44.28;27.23;;;9.90;99.90;;;;;;4981603;28;20057;-71
2022/03/25 09:02:45;;;;;;;44.88;27.05;;;9.90;99.90;;;;;;5014056;28;20132;-72
2022/03/25 09:05:12;;;;;;;41.28;29.05;;;9.90;99.90;;;;;;4981804;28;20445;-72
2022/03/25 09:07:38;;;;;;;49.55;30.50;;;10.00;99.90;;;;;;4979145;28;20065;-72
2022/03/25 09:10:05;;;;;;;49.85;30.27;;;10.00;99.90;;;;;;4965257;28;20450;-71
2022/03/25 09:12:32;;;;;;;51.45;30.58;;;10.10;99.90;;;;;;4996252;28;20038;-73
2022/03/25 09:14:57;;;;;;;53.08;32.65;;;10.10;99.90;;;;;;4999121;28;20042;-71
2022/03/25 09:17:23;;;;;;;56.17;34.30;;;10.20;99.90;;;;;;4996574;28;20390;-71
2022/03/25 09:19:48;;;;;;;57.30;34.15;;;10.30;99.90;;;;;;4981597;28;20073;-70
2022/03/25 09:22:14;;;;;;;50.72;31.20;;;10.40;99.90;;;;;;4998173;28;20054;-73
2022/03/25 09:24:40;;;;;;;53.38;29.92;;;10.50;99.90;;;;;;5003579;28;20049;-72
2022/03/25 09:27:05;;;;;;;54.10;30.33;;;10.60;99.90;;;;;;4997499;28;20046;-71
2022/03/25 09:29:31;;;;;;;41.15;26.60;;;10.80;99.90;;;;;;5017892;28;20037;-71
2022/03/25 09:31:57;;;;;;;45.78;28.73;;;10.70;99.90;;;;;;5018408;28;20042;-72
2022/03/25 09:37:08;;;;;;;44.40;26.67;;;10.80;99.90;;;;;;5018364;28;20081;-72
2022/03/25 09:39:34;;;;;;;41.33;26.48;;;10.90;99.90;;;;;;5000796;28;20053;-71
2022/03/25 09:42:03;;;;;;;45.83;27.90;;;10.90;99.90;;;;;;5018147;28;20437;-72
2022/03/25 09:44:30;;;;;;;46.30;27.27;;;11.00;99.90;;;;;;5000817;28;20115;-72
2022/03/25 09:46:56;;;;;;;39.55;24.98;;;11.10;99.90;;;;;;4982422;28;20058;-74
2022/03/25 09:49:24;;;;;;;39.33;25.42;;;11.10;99.90;;;;;;4972968;28;20101;-73
2022/03/25 09:51:50;;;;;;;42.63;25.92;;;11.40;99.90;;;;;;4961798;28;20054;-73
2022/03/25 09:54:17;;;;;;;40.20;25.67;;;11.30;99.90;;;;;;4979033;28;20115;-72
2022/03/25 09:56:43;;;;;;;46.15;26.83;;;11.40;99.90;;;;;;4962866;28;20034;-71
2022/03/25 09:59:09;;;;;;;39.97;25.67;;;11.50;99.90;;;;;;4998128;28;20118;-73
2022/03/25 10:01:35;;;;;;;39.88;26.05;;;11.50;99.90;;;;;;4998328;28;20050;-73
2022/03/25 10:04:01;;;;;;;47.75;25.05;;;11.70;99.90;;;;;;4998206;28;20034;-73
2022/03/25 10:06:27;;;;;;;48.45;27.30;;;11.80;99.90;;;;;;4981186;28;20055;-73
2022/03/25 10:08:59;;;;;;;45.65;26.50;;;11.80;99.90;;;;;;4997371;28;20457;-72
2022/03/25 10:11:27;;;;;;;41.75;27.55;;;11.90;99.90;;;;;;4997772;28;20185;-73
2022/03/25 10:14:18;;;;;;;46.35;28.02;;;11.90;99.90;;;;;;4997283;28;20050;-73
2022/03/25 10:16:46;;;;;;;40.88;25.80;;;12.00;99.90;;;;;;4981054;28;20386;-74
2022/03/25 10:19:18;;;;;;;45.63;27.08;;;12.10;99.90;;;;;;4990079;28;20062;-72
2022/03/25 10:22:02;;;;;;;45.85;27.00;;;12.10;99.90;;;;;;4978683;28;20068;-73
2022/03/25 10:24:47;;;;;;;42.97;25.85;;;12.20;99.90;;;;;;4978499;28;20050;-74
2022/03/25 10:27:20;;;;;;;37.95;23.77;;;12.40;99.90;;;;;;4961170;28;20054;-73
2022/03/25 10:29:46;;;;;;;40.75;23.90;;;12.40;99.90;;;;;;4978033;28;20043;-73
2022/03/25 10:32:15;;;;;;;39.33;22.27;;;12.50;99.90;;;;;;4978280;28;20053;-73
2022/03/25 10:34:42;;;;;;;36.65;22.35;;;12.50;99.90;;;;;;4960847;28;20066;-74
2022/03/25 10:37:11;;;;;;;38.08;22.10;;;12.60;99.90;;;;;;4978516;28;20049;-72
2022/03/25 10:39:37;;;;;;;35.17;20.10;;;12.60;99.90;;;;;;4984057;28;20414;-71
2022/03/25 10:42:06;;;;;;;38.70;20.15;;;12.70;99.90;;;;;;4960566;28;20342;-70
2022/03/25 10:44:41;;;;;;;37.67;22.67;;;12.80;99.90;;;;;;4993266;28;20050;-69
2022/03/25 10:47:16;;;;;;;30.90;19.27;;;13.00;99.90;;;;;;4977935;28;20054;-70
2022/03/25 10:49:47;;;;;;;45.65;23.92;;;13.00;99.90;;;;;;4991348;28;20097;-71
2022/03/25 10:52:32;;;;;;;36.58;21.98;;;13.20;99.90;;;;;;4994372;28;20042;-71
2022/03/25 10:55:20;;;;;;;35.28;19.40;;;13.30;99.90;;;;;;4997044;28;20054;-72
2022/03/25 10:57:58;;;;;;;35.55;19.02;;;13.40;99.90;;;;;;4996104;28;20439;-72
2022/03/25 11:00:25;;;;;;;35.45;20.73;;;13.50;99.30;;;;;;4980381;28;20042;-73
2022/03/25 11:02:52;;;;;;;46.47;18.75;;;13.60;99.30;;;;;;4979852;28;20458;-72
2022/03/25 11:05:17;;;;;;;34.58;19.33;;;13.70;98.50;;;;;;4963349;28;20053;-69
2022/03/25 11:07:45;;;;;;;32.08;18.42;;;13.80;99.30;;;;;;4996678;28;20061;-71
2022/03/25 11:10:13;;;;;;;39.55;21.30;;;13.90;97.60;;;;;;4979305;28;20061;-72
2022/03/25 11:12:47;;;;;;;40.78;20.90;;;13.90;93.80;;;;;;4997079;28;20392;-68
2022/03/25 11:15:17;;;;;;;39.65;20.88;;;14.00;92.90;;;;;;4997073;28;20362;-70
2022/03/25 11:17:43;;;;;;;36.03;20.90;;;14.10;94.40;;;;;;4996260;28;20039;-73
2022/03/25 11:20:11;;;;;;;32.60;20.15;;;14.10;95.60;;;;;;4980202;28;20077;-70
2022/03/25 11:22:42;;;;;;;39.05;19.70;;;14.10;94.20;;;;;;4979617;28;20062;-71
2022/03/25 11:25:10;;;;;;;31.77;18.08;;;14.20;93.80;;;;;;4996163;28;20129;-70
2022/03/25 11:27:38;;;;;;;42.95;22.88;;;14.30;92.50;;;;;;5000881;28;20054;-72
2022/03/25 11:30:13;;;;;;;38.75;21.45;;;14.30;90.80;;;;;;5006711;28;20037;-71
2022/03/25 11:32:57;;;;;;;35.95;18.73;;;14.30;92.90;;;;;;5007938;28;20385;-71
2022/03/25 11:35:24;;;;;;;37.50;19.40;;;14.30;94.70;;;;;;5011648;28;20058;-70
2022/03/25 11:38:09;;;;;;;35.20;19.60;;;14.40;96.10;;;;;;5002316;28;20424;-70
2022/03/25 11:40:44;;;;;;;35.85;21.10;;;14.60;92.80;;;;;;4980695;28;20088;-72
2022/03/25 11:43:15;;;;;;;29.65;18.80;;;14.60;93.20;;;;;;4989118;28;20125;-72
2022/03/25 11:45:42;;;;;;;32.35;17.85;;;14.70;94.60;;;;;;5006323;28;20046;-68
2022/03/25 11:48:08;;;;;;;31.88;17.52;;;14.90;92.60;;;;;;5006133;28;20081;-72
2022/03/25 11:50:41;;;;;;;31.95;17.88;;;14.90;93.50;;;;;;4989721;28;20058;-69
2022/03/25 11:53:10;;;;;;;39.40;20.05;;;15.00;92.40;;;;;;4988901;28;20057;-71
2022/03/25 11:56:06;;;;;;;34.70;18.40;;;15.00;90.10;;;;;;4987573;28;20125;-72
2022/03/25 11:58:39;;;;;;;34.78;18.58;;;15.00;90.20;;;;;;5008490;28;20038;-71
2022/03/25 12:01:18;;;;;;;34.60;18.75;;;15.10;89.90;;;;;;5003552;28;20096;-72
2022/03/25 12:03:54;;;;;;;33.70;18.73;;;15.10;90.00;;;;;;5004590;28;20065;-70
2022/03/25 12:06:44;;;;;;;28.70;16.27;;;15.20;88.40;;;;;;5004213;28;20056;-73
2022/03/25 12:09:18;;;;;;;34.33;19.80;;;15.30;83.50;;;;;;4982244;28;20136;-69
2022/03/25 12:11:55;;;;;;;29.33;17.27;;;15.30;80.60;;;;;;5004386;28;20042;-68
2022/03/25 12:14:26;;;;;;;35.20;18.38;;;15.30;85.50;;;;;;4997886;28;20104;-73
2022/03/25 12:16:51;;;;;;;33.15;19.42;;;15.40;80.70;;;;;;4984992;28;20042;-72
2022/03/25 12:19:26;;;;;;;29.67;18.05;;;15.40;83.50;;;;;;5009858;28;20561;-73
2022/03/25 12:22:03;;;;;;;30.27;18.60;;;15.40;76.50;;;;;;5002124;28;20058;-72
2022/03/25 12:24:30;;;;;;;34.08;19.67;;;15.50;75.50;;;;;;5006854;28;20046;-73
2022/03/25 12:27:04;;;;;;;29.02;19.20;;;15.40;73.90;;;;;;4995022;28;20237;-71
2022/03/25 12:29:31;;;;;;;32.00;17.40;;;15.40;72.40;;;;;;5000732;28;20045;-70
2022/03/25 12:32:02;;;;;;;37.42;19.92;;;15.40;75.10;;;;;;5010253;28;20084;-72
2022/03/25 12:34:52;;;;;;;34.80;19.83;;;15.50;75.30;;;;;;4984652;28;20127;-72
2022/03/25 12:37:46;;;;;;;33.88;19.63;;;15.60;73.10;;;;;;5006772;28;20061;-68
2022/03/25 12:40:14;;;;;;;31.23;18.25;;;15.60;74.00;;;;;;4963345;28;20144;-68